Time;durP1;ratioP1;P1;durP2;ratioP2;P2;SDS_P1;SDS_P2;PMS_P1;PMS_P2;Temp;Humidity;BMP_temperature;BMP_pressure;BME280_temperature;BME280_humidity;BME280_pressure;Samples;Min_cycle;Max_cycle;Signal;HPM_P1;HPM_P2
2022/12/28 00:02:17;;;;;;;10.03;5.67;;;6.30;99.90;;;;;;5018340;28;20212;-64
2022/12/28 00:04:42;;;;;;;9.17;6.20;;;6.20;99.90;;;;;;5021428;28;20279;-64
2022/12/28 00:07:08;;;;;;;7.77;5.93;;;6.20;99.90;;;;;;5021223;28;20560;-64
2022/12/28 00:09:34;;;;;;;10.03;5.83;;;6.20;99.90;;;;;;5019117;28;20698;-64
2022/12/28 00:11:59;;;;;;;6.73;5.10;;;6.30;99.90;;;;;;5019291;28;20190;-63
2022/12/28 00:14:25;;;;;;;10.10;5.73;;;6.30;99.90;;;;;;5017129;28;20185;-64
2022/12/28 00:16:50;;;;;;;9.30;5.70;;;6.20;99.90;;;;;;5019971;28;20216;-64
2022/12/28 00:19:16;;;;;;;8.93;5.70;;;6.10;99.90;;;;;;5018379;28;20267;-63
2022/12/28 00:21:43;;;;;;;10.50;5.60;;;6.20;99.90;;;;;;5015369;28;20273;-63
2022/12/28 00:24:16;;;;;;;8.80;5.47;;;6.10;99.90;;;;;;5011743;28;20188;-63
2022/12/28 00:26:42;;;;;;;9.53;5.73;;;6.20;99.90;;;;;;5017250;28;20873;-63
2022/12/28 00:29:07;;;;;;;7.97;5.53;;;6.20;99.90;;;;;;5017148;28;20978;-63
2022/12/28 00:31:33;;;;;;;8.33;5.93;;;6.20;99.90;;;;;;5013237;28;20188;-63
2022/12/28 00:33:59;;;;;;;7.70;5.77;;;6.10;99.90;;;;;;5023322;28;20188;-63
2022/12/28 00:36:24;;;;;;;9.83;6.40;;;6.10;99.90;;;;;;5019493;28;20208;-63
2022/12/28 00:38:50;;;;;;;8.93;6.70;;;6.00;99.90;;;;;;5017752;28;20259;-63
2022/12/28 00:41:16;;;;;;;8.73;6.13;;;6.10;99.90;;;;;;5020021;28;20207;-63
2022/12/28 00:43:41;;;;;;;8.87;6.03;;;6.10;99.90;;;;;;5021224;28;20235;-63
2022/12/28 00:46:07;;;;;;;8.97;6.20;;;6.10;99.90;;;;;;5017450;28;20683;-63
2022/12/28 00:48:33;;;;;;;7.40;5.47;;;6.10;99.90;;;;;;5015044;28;20203;-63
2022/12/28 00:51:18;;;;;;;8.80;5.93;;;6.20;99.90;;;;;;5016581;28;20427;-63
2022/12/28 00:53:44;;;;;;;11.20;5.43;;;6.20;99.90;;;;;;5016835;28;20650;-63
2022/12/28 00:56:19;;;;;;;7.03;5.70;;;6.30;99.90;;;;;;5012784;28;22175;-63
2022/12/28 00:58:45;;;;;;;7.40;5.40;;;6.20;99.90;;;;;;5016267;28;20191;-63
2022/12/28 01:01:17;;;;;;;11.17;5.50;;;6.30;99.90;;;;;;5017446;28;20470;-63
2022/12/28 01:03:42;;;;;;;6.67;5.67;;;6.40;99.90;;;;;;5014841;28;21034;-63
2022/12/28 01:06:10;;;;;;;7.63;5.00;;;6.40;99.90;;;;;;5012691;28;20799;-63
2022/12/28 01:08:36;;;;;;;6.93;5.70;;;6.50;99.90;;;;;;5016109;28;20841;-63
2022/12/28 01:11:18;;;;;;;11.80;6.13;;;6.50;99.90;;;;;;5013585;28;20443;-63
2022/12/28 01:13:44;;;;;;;6.97;4.93;;;6.50;99.90;;;;;;5018368;28;20426;-63
2022/12/28 01:16:15;;;;;;;8.30;5.17;;;6.50;99.90;;;;;;5019021;28;21441;-63
2022/12/28 01:18:42;;;;;;;7.97;5.53;;;6.50;99.90;;;;;;5013203;28;21248;-63
2022/12/28 01:21:13;;;;;;;7.53;5.70;;;6.50;99.90;;;;;;5016921;28;20472;-63
2022/12/28 01:23:39;;;;;;;8.70;5.03;;;6.50;99.90;;;;;;5014104;28;20479;-63
2022/12/28 01:26:04;;;;;;;9.30;5.53;;;6.60;99.90;;;;;;5018776;28;20999;-63
2022/12/28 01:28:30;;;;;;;9.10;6.10;;;6.70;99.90;;;;;;5017584;28;20767;-63
2022/12/28 01:30:56;;;;;;;10.03;4.80;;;6.70;99.90;;;;;;5021928;28;20590;-63
2022/12/28 01:33:21;;;;;;;9.23;6.00;;;6.50;99.90;;;;;;5017519;28;20192;-63
2022/12/28 01:35:47;;;;;;;7.93;6.13;;;6.50;99.90;;;;;;5018266;28;20546;-63
2022/12/28 01:38:12;;;;;;;7.83;5.40;;;6.60;99.90;;;;;;5016692;28;20255;-63
2022/12/28 01:40:42;;;;;;;9.00;5.27;;;6.60;99.90;;;;;;5021313;28;20603;-63
2022/12/28 01:43:17;;;;;;;8.57;5.10;;;6.70;99.90;;;;;;5020819;28;20726;-63
2022/12/28 01:45:50;;;;;;;7.73;5.07;;;6.70;99.90;;;;;;5017170;28;20496;-63
2022/12/28 01:48:22;;;;;;;8.50;6.20;;;6.80;99.90;;;;;;5012390;28;20514;-63
2022/12/28 01:50:48;;;;;;;6.60;4.70;;;6.80;99.90;;;;;;5019219;28;20496;-63
2022/12/28 01:53:16;;;;;;;11.80;5.60;;;6.90;99.90;;;;;;5016555;28;20581;-63
2022/12/28 01:55:42;;;;;;;6.80;4.90;;;6.90;99.90;;;;;;5018908;28;20562;-63
2022/12/28 01:58:16;;;;;;;6.47;5.13;;;6.90;99.90;;;;;;5015203;28;20979;-63
2022/12/28 02:00:41;;;;;;;8.20;5.67;;;6.80;99.90;;;;;;5018021;28;20434;-63
2022/12/28 02:03:15;;;;;;;7.00;4.90;;;6.80;99.90;;;;;;5016661;28;20439;-63
2022/12/28 02:05:44;;;;;;;7.63;5.03;;;6.90;99.90;;;;;;5018361;28;20342;-63
2022/12/28 02:08:23;;;;;;;11.30;6.23;;;6.80;99.90;;;;;;5015632;28;20930;-63
2022/12/28 02:10:50;;;;;;;7.17;5.30;;;6.90;99.90;;;;;;5023272;28;20406;-63
2022/12/28 02:13:17;;;;;;;9.83;5.00;;;6.90;99.90;;;;;;5023624;28;20443;-63
2022/12/28 02:15:44;;;;;;;8.40;6.00;;;6.90;99.90;;;;;;5023459;28;20967;-63
2022/12/28 02:18:11;;;;;;;6.47;5.27;;;6.90;99.90;;;;;;5019892;28;21720;-63
2022/12/28 02:21:25;;;;;;;6.00;4.50;;;6.90;99.90;;;;;;5014648;28;20494;-63
2022/12/28 02:24:15;;;;;;;7.50;4.93;;;7.00;99.90;;;;;;5022873;28;20470;-63
2022/12/28 02:27:06;;;;;;;9.60;4.87;;;7.00;99.90;;;;;;5018351;28;20460;-63
2022/12/28 02:29:48;;;;;;;7.63;4.93;;;7.00;99.90;;;;;;5017240;28;20431;-63
2022/12/28 02:32:30;;;;;;;6.53;5.17;;;7.00;99.90;;;;;;5020153;28;20713;-63
2022/12/28 02:35:10;;;;;;;5.73;4.67;;;7.10;99.90;;;;;;5020373;28;20581;-63
2022/12/28 02:38:08;;;;;;;7.10;5.20;;;7.10;99.90;;;;;;5018615;28;20494;-63
2022/12/28 02:40:51;;;;;;;5.90;5.00;;;7.10;99.90;;;;;;5014540;28;20473;-63
2022/12/28 02:43:17;;;;;;;10.03;4.80;;;7.20;99.90;;;;;;5022564;28;20526;-63
2022/12/28 02:51:38;;;;;;;5.87;4.47;;;7.30;99.90;;;;;;5016106;28;20458;-63
2022/12/28 02:57:47;;;;;;;5.80;4.00;;;7.20;99.90;;;;;;5016538;28;20842;-63
2022/12/28 03:00:18;;;;;;;5.70;4.67;;;7.20;99.90;;;;;;5017232;28;20423;-63
2022/12/28 03:02:56;;;;;;;7.30;4.60;;;7.10;99.90;;;;;;5015761;28;20489;-63
2022/12/28 03:08:18;;;;;;;5.33;3.97;;;7.20;99.90;;;;;;5017817;28;20836;-63
2022/12/28 03:11:03;;;;;;;6.33;4.10;;;7.20;99.90;;;;;;5019043;28;20439;-63
2022/12/28 03:13:41;;;;;;;5.17;4.10;;;7.20;99.90;;;;;;5016989;28;20434;-63
2022/12/28 03:16:29;;;;;;;5.77;4.50;;;7.30;99.90;;;;;;5015934;28;20806;-63
2022/12/28 03:33:00;;;;;;;6.20;4.33;;;7.40;99.90;;;;;;5020865;28;20586;-63
2022/12/28 03:35:50;;;;;;;7.17;5.63;;;7.40;99.90;;;;;;5015117;28;21060;-63
2022/12/28 03:38:26;;;;;;;8.17;5.27;;;7.40;99.90;;;;;;5021778;28;20449;-63
2022/12/28 03:41:12;;;;;;;9.43;5.20;;;7.40;99.90;;;;;;5017772;28;20876;-63
2022/12/28 03:43:44;;;;;;;8.20;5.27;;;7.30;99.90;;;;;;5018866;28;20911;-63
2022/12/28 03:46:18;;;;;;;7.37;5.77;;;7.40;99.90;;;;;;5020309;28;20546;-63
2022/12/28 03:48:45;;;;;;;7.73;4.83;;;7.40;99.90;;;;;;5015115;28;20442;-63
2022/12/28 03:51:15;;;;;;;6.87;4.80;;;7.40;99.90;;;;;;5019082;28;21022;-64
2022/12/28 03:53:43;;;;;;;9.63;5.83;;;7.40;99.90;;;;;;5015554;28;20911;-63
2022/12/28 03:56:20;;;;;;;9.10;4.90;;;7.40;99.90;;;;;;5020001;28;20471;-63
2022/12/28 03:58:46;;;;;;;7.27;5.10;;;7.40;99.90;;;;;;5015235;28;20839;-63
2022/12/28 04:01:12;;;;;;;8.30;5.30;;;7.40;99.90;;;;;;5017974;28;20698;-65
2022/12/28 04:03:38;;;;;;;8.30;5.77;;;7.40;99.90;;;;;;5018741;28;20438;-63
2022/12/28 04:06:04;;;;;;;7.60;5.60;;;7.30;99.90;;;;;;5024309;28;20208;-64
2022/12/28 04:08:31;;;;;;;8.00;5.60;;;7.30;99.90;;;;;;5016617;28;20220;-63
2022/12/28 04:11:00;;;;;;;8.07;5.77;;;7.40;99.90;;;;;;5022896;28;20725;-63
2022/12/28 04:13:30;;;;;;;11.73;5.97;;;7.40;99.90;;;;;;5024612;28;20979;-63
2022/12/28 04:16:01;;;;;;;7.13;5.40;;;7.40;99.90;;;;;;5019611;28;20684;-63
2022/12/28 04:18:28;;;;;;;7.67;5.50;;;7.40;99.90;;;;;;5017253;28;20450;-64
2022/12/28 04:20:54;;;;;;;8.30;5.70;;;7.40;99.90;;;;;;5017684;28;20447;-63
2022/12/28 04:23:20;;;;;;;8.03;5.40;;;7.40;99.90;;;;;;5020714;28;20442;-63
2022/12/28 04:26:01;;;;;;;12.77;5.50;;;7.40;99.90;;;;;;5017742;28;20212;-63
2022/12/28 04:28:28;;;;;;;8.83;4.97;;;7.40;99.90;;;;;;5022550;28;20270;-63
2022/12/28 04:30:54;;;;;;;8.30;5.43;;;7.40;99.90;;;;;;5014979;28;20430;-63
2022/12/28 04:33:21;;;;;;;6.23;4.70;;;7.40;99.90;;;;;;5019375;28;20451;-63
2022/12/28 04:35:47;;;;;;;6.97;5.63;;;7.40;99.90;;;;;;5020046;28;20451;-63
2022/12/28 04:38:12;;;;;;;6.57;5.03;;;7.40;99.90;;;;;;5009720;28;20622;-63
2022/12/28 04:40:38;;;;;;;6.50;5.23;;;7.40;99.90;;;;;;5011970;28;20185;-63
2022/12/28 04:43:03;;;;;;;8.30;5.67;;;7.40;99.90;;;;;;5015839;28;20262;-63
2022/12/28 04:45:29;;;;;;;9.47;5.60;;;7.40;99.90;;;;;;5014817;28;20200;-63
2022/12/28 04:47:58;;;;;;;9.13;5.73;;;7.40;99.90;;;;;;5015686;28;20485;-63
2022/12/28 04:50:25;;;;;;;8.67;4.50;;;7.40;99.90;;;;;;5016603;28;20315;-63
2022/12/28 04:52:51;;;;;;;7.77;5.13;;;7.50;99.90;;;;;;5017320;28;21178;-63
2022/12/28 04:55:16;;;;;;;5.63;4.60;;;7.50;99.90;;;;;;5015204;28;20473;-64
2022/12/28 04:57:43;;;;;;;7.27;4.10;;;7.50;99.90;;;;;;5010983;28;20650;-64
2022/12/28 05:00:09;;;;;;;8.00;3.53;;;7.50;99.90;;;;;;5016383;28;20204;-64
2022/12/28 05:02:35;;;;;;;5.30;4.10;;;7.60;99.90;;;;;;5016114;28;20538;-64
2022/12/28 05:05:00;;;;;;;4.97;2.73;;;7.60;99.90;;;;;;5020956;28;20545;-64
2022/12/28 05:07:27;;;;;;;4.47;2.73;;;7.70;99.90;;;;;;5017382;28;20270;-64
2022/12/28 05:09:52;;;;;;;2.87;2.03;;;7.80;99.90;;;;;;5012752;28;20199;-64
2022/12/28 05:12:18;;;;;;;2.13;1.60;;;7.90;99.90;;;;;;5018464;28;20450;-64
2022/12/28 05:14:44;;;;;;;3.60;1.83;;;7.90;99.90;;;;;;5017954;28;20188;-64
2022/12/28 05:17:09;;;;;;;3.20;1.77;;;8.00;99.90;;;;;;5016358;28;21094;-64
2022/12/28 05:19:35;;;;;;;4.53;1.93;;;8.00;99.90;;;;;;5017113;28;20211;-64
2022/12/28 05:22:01;;;;;;;2.53;1.60;;;8.00;99.90;;;;;;5020589;28;20245;-64
2022/12/28 05:24:26;;;;;;;4.07;1.70;;;8.20;99.90;;;;;;5021584;28;20176;-64
2022/12/28 05:26:52;;;;;;;2.23;1.43;;;8.20;99.90;;;;;;5018498;28;20327;-64
2022/12/28 05:29:17;;;;;;;2.90;1.60;;;8.30;99.90;;;;;;5010881;28;20192;-64
2022/12/28 05:31:43;;;;;;;2.60;1.30;;;8.30;99.90;;;;;;5013346;28;20221;-64
2022/12/28 05:34:08;;;;;;;3.30;1.50;;;8.30;99.90;;;;;;5014282;28;20202;-64
2022/12/28 05:36:36;;;;;;;1.93;1.40;;;8.40;99.90;;;;;;5023347;28;20222;-64
2022/12/28 05:39:03;;;;;;;4.23;1.50;;;8.40;99.90;;;;;;5009319;28;20180;-64
2022/12/28 05:41:29;;;;;;;4.10;1.53;;;8.40;99.90;;;;;;5015532;28;20522;-64
2022/12/28 05:43:57;;;;;;;2.27;1.50;;;8.50;99.90;;;;;;5015114;28;20576;-64
2022/12/28 05:46:28;;;;;;;2.97;1.63;;;8.40;99.90;;;;;;5016431;28;20450;-64
2022/12/28 05:48:54;;;;;;;3.40;1.40;;;8.50;99.90;;;;;;5009603;28;20450;-64
2022/12/28 05:51:22;;;;;;;2.70;1.40;;;8.60;99.90;;;;;;5016130;28;20886;-64
2022/12/28 05:53:48;;;;;;;4.40;1.90;;;8.70;99.90;;;;;;5016374;28;20189;-64
2022/12/28 05:56:25;;;;;;;4.23;1.50;;;8.70;99.90;;;;;;5010717;28;20839;-63
2022/12/28 05:58:54;;;;;;;3.03;1.60;;;8.70;99.90;;;;;;5012719;28;20457;-63
2022/12/28 06:01:21;;;;;;;3.47;1.33;;;8.80;99.90;;;;;;5016208;28;20416;-63
2022/12/28 06:03:54;;;;;;;1.90;1.37;;;8.80;99.90;;;;;;5014363;28;20502;-63
2022/12/28 06:06:20;;;;;;;3.60;1.50;;;8.80;99.90;;;;;;5011817;28;20463;-63
2022/12/28 06:08:47;;;;;;;3.53;1.80;;;8.70;99.90;;;;;;5020064;28;20940;-63
2022/12/28 06:11:16;;;;;;;2.73;1.47;;;8.80;99.90;;;;;;5016879;28;20235;-63
2022/12/28 06:13:41;;;;;;;5.40;1.70;;;8.80;99.90;;;;;;5016655;28;20469;-63
2022/12/28 06:16:10;;;;;;;3.40;1.50;;;8.80;99.90;;;;;;5017658;28;20446;-63
2022/12/28 06:18:36;;;;;;;2.80;1.70;;;8.90;99.90;;;;;;5015559;28;20215;-63
2022/12/28 06:21:07;;;;;;;3.23;1.60;;;8.90;99.90;;;;;;5013738;28;20415;-63
2022/12/28 06:23:33;;;;;;;2.83;2.10;;;8.90;99.90;;;;;;5017712;28;20275;-64
2022/12/28 06:26:00;;;;;;;2.50;2.10;;;8.90;99.90;;;;;;5013295;28;21215;-63
2022/12/28 06:28:25;;;;;;;3.57;1.60;;;8.90;99.90;;;;;;5019001;28;20799;-63
2022/12/28 06:30:51;;;;;;;3.07;1.50;;;8.90;99.90;;;;;;5014816;28;20463;-64
2022/12/28 06:33:16;;;;;;;3.07;1.90;;;8.90;99.90;;;;;;5016444;28;20729;-63
2022/12/28 06:35:42;;;;;;;3.10;1.50;;;8.90;99.90;;;;;;5018414;28;20217;-63
2022/12/28 06:38:07;;;;;;;3.20;1.40;;;8.90;99.90;;;;;;5021118;28;20207;-63
2022/12/28 06:40:33;;;;;;;3.30;2.00;;;8.90;99.90;;;;;;5018537;28;20694;-63
2022/12/28 06:42:58;;;;;;;2.83;1.70;;;9.00;99.90;;;;;;5016822;28;20606;-64
2022/12/28 06:45:24;;;;;;;2.80;1.50;;;9.00;99.90;;;;;;5014404;28;20180;-63
2022/12/28 06:47:51;;;;;;;2.13;1.50;;;9.10;99.90;;;;;;5016638;28;20559;-63
2022/12/28 06:50:16;;;;;;;4.17;1.60;;;9.00;99.90;;;;;;5018384;28;20238;-63
2022/12/28 06:52:42;;;;;;;2.00;1.50;;;8.90;99.90;;;;;;5019170;28;20869;-63
2022/12/28 06:55:08;;;;;;;2.40;1.70;;;8.90;99.90;;;;;;5017385;28;20184;-63
2022/12/28 06:57:33;;;;;;;2.33;1.47;;;9.00;99.90;;;;;;5018247;28;20571;-63
2022/12/28 06:59:59;;;;;;;2.33;1.43;;;9.00;99.90;;;;;;5019986;28;20440;-63
2022/12/28 07:02:24;;;;;;;2.27;1.30;;;8.90;99.90;;;;;;5022888;28;20192;-63
2022/12/28 07:04:50;;;;;;;2.40;1.60;;;9.10;99.90;;;;;;5019919;28;20674;-64
2022/12/28 07:07:15;;;;;;;6.50;2.07;;;9.10;99.90;;;;;;5014902;28;20685;-64
2022/12/28 07:09:41;;;;;;;6.07;1.50;;;9.00;99.90;;;;;;5020225;28;20251;-64
2022/12/28 07:12:07;;;;;;;3.30;3.00;;;9.10;99.90;;;;;;5016674;28;20495;-64
2022/12/28 07:14:32;;;;;;;3.30;1.47;;;9.10;99.90;;;;;;5017726;28;20641;-64
2022/12/28 07:16:58;;;;;;;2.30;1.57;;;9.10;99.90;;;;;;5018536;28;20207;-64
2022/12/28 07:19:23;;;;;;;2.50;2.30;;;9.20;99.90;;;;;;5020722;28;20180;-64
2022/12/28 07:21:49;;;;;;;3.30;1.63;;;9.20;99.90;;;;;;5022926;28;20250;-64
2022/12/28 07:24:15;;;;;;;2.27;1.37;;;9.20;99.90;;;;;;5014871;28;20522;-64
2022/12/28 07:26:40;;;;;;;2.47;1.57;;;9.30;99.90;;;;;;5020817;28;20885;-64
2022/12/28 07:29:07;;;;;;;2.50;1.50;;;9.30;99.90;;;;;;5015485;28;20503;-64
2022/12/28 07:31:36;;;;;;;4.20;1.73;;;9.30;99.90;;;;;;5019704;28;20193;-64
2022/12/28 07:34:02;;;;;;;3.07;1.60;;;9.30;99.90;;;;;;5014805;28;20988;-64
2022/12/28 07:36:29;;;;;;;3.37;1.40;;;9.20;99.90;;;;;;5018026;28;20466;-64
2022/12/28 07:38:55;;;;;;;2.27;1.60;;;9.20;99.90;;;;;;5014617;28;20890;-64
2022/12/28 07:41:24;;;;;;;2.80;1.60;;;9.20;99.90;;;;;;5017170;28;20443;-64
2022/12/28 07:43:50;;;;;;;4.63;1.67;;;9.30;99.90;;;;;;5015640;28;20427;-64
2022/12/28 07:46:18;;;;;;;3.73;1.53;;;9.30;99.90;;;;;;5020608;28;20914;-64
2022/12/28 07:48:45;;;;;;;3.13;2.00;;;9.30;99.90;;;;;;5018513;28;20519;-63
2022/12/28 07:51:18;;;;;;;3.57;1.80;;;9.30;99.90;;;;;;5021148;28;20451;-63
2022/12/28 07:53:45;;;;;;;5.63;2.20;;;9.40;99.90;;;;;;5021322;28;20447;-63
2022/12/28 07:56:11;;;;;;;2.93;1.57;;;9.50;99.90;;;;;;5014877;28;20497;-64
2022/12/28 07:58:37;;;;;;;2.20;1.50;;;9.50;99.90;;;;;;5015002;28;20895;-64
2022/12/28 08:01:14;;;;;;;3.20;1.70;;;9.50;99.90;;;;;;5016990;28;20437;-64
2022/12/28 08:03:41;;;;;;;3.53;2.53;;;9.60;99.90;;;;;;5019718;28;20439;-64
2022/12/28 08:06:12;;;;;;;3.43;1.50;;;9.60;99.90;;;;;;5020076;28;20489;-63
2022/12/28 08:08:40;;;;;;;3.00;1.70;;;9.60;99.90;;;;;;5013792;28;20928;-64
2022/12/28 08:11:09;;;;;;;3.30;1.90;;;9.60;99.90;;;;;;5017919;28;20442;-64
2022/12/28 08:13:37;;;;;;;3.30;1.73;;;9.60;99.90;;;;;;5020390;28;20427;-64
2022/12/28 08:16:03;;;;;;;18.67;12.63;;;9.70;99.90;;;;;;5018574;28;20466;-64
2022/12/28 08:18:30;;;;;;;3.87;1.50;;;9.60;99.90;;;;;;5021805;28;20498;-64
2022/12/28 08:21:00;;;;;;;2.60;2.20;;;9.70;99.90;;;;;;5018119;28;20525;-64
2022/12/28 08:23:26;;;;;;;3.50;1.93;;;9.70;99.90;;;;;;5020896;28;20443;-64
2022/12/28 08:25:51;;;;;;;3.77;1.90;;;9.70;99.90;;;;;;5013662;28;20474;-63
2022/12/28 08:28:17;;;;;;;2.97;2.13;;;9.70;99.90;;;;;;5023985;28;20188;-64
2022/12/28 08:30:42;;;;;;;8.13;1.90;;;9.80;99.90;;;;;;5016926;28;20629;-63
2022/12/28 08:33:08;;;;;;;4.40;1.67;;;9.80;99.90;;;;;;5019923;28;20186;-64
2022/12/28 08:35:33;;;;;;;4.27;1.80;;;9.80;99.90;;;;;;5018153;28;20366;-64
2022/12/28 08:37:59;;;;;;;3.17;2.37;;;9.80;99.90;;;;;;5016373;28;20460;-64
2022/12/28 08:40:28;;;;;;;4.80;1.90;;;9.80;99.90;;;;;;5016538;28;20184;-64
2022/12/28 08:43:00;;;;;;;4.00;2.27;;;9.80;99.90;;;;;;5018582;28;20177;-63
2022/12/28 08:45:26;;;;;;;2.17;1.70;;;9.80;99.90;;;;;;5010514;28;20530;-64
2022/12/28 08:47:52;;;;;;;2.97;1.87;;;9.90;99.90;;;;;;5013975;28;20873;-64
2022/12/28 08:50:19;;;;;;;2.60;1.60;;;9.90;99.90;;;;;;5017352;28;20238;-64
2022/12/28 08:52:44;;;;;;;3.67;1.73;;;9.80;99.90;;;;;;5015635;28;20541;-63
2022/12/28 08:55:10;;;;;;;2.83;1.87;;;9.90;99.90;;;;;;5013981;28;20492;-66
2022/12/28 08:57:36;;;;;;;4.60;1.63;;;9.90;99.90;;;;;;5017065;28;21146;-65
2022/12/28 09:00:04;;;;;;;3.03;1.70;;;9.90;99.90;;;;;;5019120;28;20238;-64
2022/12/28 09:02:29;;;;;;;2.23;1.73;;;9.90;99.90;;;;;;5015789;28;20575;-65
2022/12/28 09:04:55;;;;;;;5.03;1.83;;;10.00;99.90;;;;;;5016908;28;20445;-65
2022/12/28 09:07:20;;;;;;;2.60;1.70;;;10.10;99.90;;;;;;5015137;28;20216;-65
2022/12/28 09:09:46;;;;;;;2.07;1.70;;;10.10;99.90;;;;;;5015185;28;20198;-65
2022/12/28 09:12:11;;;;;;;3.37;1.80;;;10.10;99.90;;;;;;5020990;28;20192;-65
2022/12/28 09:14:37;;;;;;;2.70;2.07;;;10.10;99.90;;;;;;5018367;28;20189;-65
2022/12/28 09:17:02;;;;;;;4.67;2.10;;;10.10;99.90;;;;;;5017952;28;22490;-65
2022/12/28 09:19:28;;;;;;;3.67;2.00;;;10.10;99.90;;;;;;5016865;28;20674;-65
2022/12/28 09:21:54;;;;;;;3.40;1.80;;;10.20;99.90;;;;;;5014492;28;20192;-65
2022/12/28 09:24:21;;;;;;;3.80;1.90;;;10.30;99.90;;;;;;5017185;28;20666;-65
2022/12/28 09:26:47;;;;;;;3.83;1.80;;;10.30;99.90;;;;;;5013727;28;20258;-65
2022/12/28 09:29:13;;;;;;;2.80;2.03;;;10.30;99.90;;;;;;5014613;28;20423;-65
2022/12/28 09:31:40;;;;;;;4.73;1.63;;;10.30;99.90;;;;;;5015379;28;20478;-65
2022/12/28 09:34:07;;;;;;;3.80;1.90;;;10.30;99.90;;;;;;5015008;28;20187;-66
2022/12/28 09:36:35;;;;;;;4.47;1.50;;;10.40;99.90;;;;;;5020446;28;20462;-65
2022/12/28 09:39:04;;;;;;;2.37;1.57;;;10.40;99.90;;;;;;5010877;28;20439;-65
2022/12/28 09:41:39;;;;;;;3.50;2.50;;;10.40;99.90;;;;;;5020595;28;20515;-65
2022/12/28 09:44:25;;;;;;;3.50;1.63;;;10.50;99.90;;;;;;5014081;28;20500;-66
2022/12/28 09:47:16;;;;;;;2.83;1.63;;;10.60;99.90;;;;;;5014812;28;20762;-65
2022/12/28 09:49:54;;;;;;;3.90;2.00;;;10.40;99.90;;;;;;5016614;28;20447;-65
2022/12/28 09:52:35;;;;;;;2.70;1.73;;;10.40;99.90;;;;;;5017003;28;21226;-65
2022/12/28 09:55:09;;;;;;;2.00;1.50;;;10.50;99.90;;;;;;5013943;28;20447;-66
2022/12/28 09:57:38;;;;;;;2.90;1.83;;;10.50;99.90;;;;;;5017103;28;20455;-65
2022/12/28 10:00:07;;;;;;;3.70;1.60;;;10.50;99.90;;;;;;5016017;28;20429;-65
2022/12/28 10:02:35;;;;;;;4.03;1.90;;;10.50;99.90;;;;;;5012648;28;21028;-65
2022/12/28 10:05:01;;;;;;;3.73;1.70;;;10.50;99.90;;;;;;5014782;28;20455;-64
2022/12/28 10:07:26;;;;;;;3.37;2.13;;;10.50;99.90;;;;;;5008321;28;20451;-64
2022/12/28 10:09:52;;;;;;;3.67;1.50;;;10.70;99.90;;;;;;5013681;28;20783;-64
2022/12/28 10:12:23;;;;;;;2.10;1.60;;;10.70;99.90;;;;;;5016551;28;20177;-64
2022/12/28 10:14:50;;;;;;;4.00;2.03;;;10.60;99.90;;;;;;5010848;28;20196;-64
2022/12/28 10:17:19;;;;;;;3.40;1.70;;;10.60;99.90;;;;;;5016859;28;20548;-64
2022/12/28 10:19:46;;;;;;;5.57;1.93;;;10.70;99.90;;;;;;5017690;28;20447;-64
2022/12/28 10:22:17;;;;;;;2.87;2.00;;;10.70;99.90;;;;;;5012892;28;20975;-64
2022/12/28 10:24:44;;;;;;;2.27;2.07;;;10.70;99.90;;;;;;5011256;28;20444;-64
2022/12/28 10:27:20;;;;;;;3.00;1.90;;;10.70;99.90;;;;;;5013947;28;20556;-64
2022/12/28 10:29:46;;;;;;;2.53;1.70;;;10.80;99.90;;;;;;5019951;28;20432;-64
2022/12/28 10:32:12;;;;;;;2.23;1.50;;;10.80;99.90;;;;;;5020161;28;20495;-64
2022/12/28 10:34:59;;;;;;;2.20;1.67;;;10.90;99.90;;;;;;5017343;28;20443;-64
2022/12/28 10:37:29;;;;;;;5.63;2.17;;;10.90;99.90;;;;;;5020140;28;20219;-64
2022/12/28 10:39:58;;;;;;;2.10;1.70;;;11.00;99.90;;;;;;5018212;28;20481;-64
2022/12/28 10:42:39;;;;;;;3.10;1.70;;;11.10;99.90;;;;;;5018660;28;20447;-64
2022/12/28 10:45:17;;;;;;;4.03;1.70;;;11.20;99.90;;;;;;5015867;28;20614;-64
2022/12/28 10:47:47;;;;;;;2.43;1.70;;;11.10;99.90;;;;;;5018683;28;21239;-64
2022/12/28 10:50:46;;;;;;;1.73;1.40;;;11.10;99.90;;;;;;5016415;28;20768;-64
2022/12/28 10:53:26;;;;;;;3.33;1.93;;;11.20;99.90;;;;;;5016993;28;20490;-64
2022/12/28 10:56:06;;;;;;;2.10;1.63;;;11.10;99.90;;;;;;5015250;28;20473;-64
2022/12/28 10:58:33;;;;;;;2.77;2.10;;;11.20;99.90;;;;;;5015216;28;20462;-64
2022/12/28 11:01:04;;;;;;;4.80;1.63;;;11.30;99.90;;;;;;5018496;28;20867;-64
2022/12/28 11:03:34;;;;;;;4.80;3.10;;;11.30;99.90;;;;;;5013620;28;20912;-64
2022/12/28 11:06:23;;;;;;;2.50;1.47;;;11.30;99.90;;;;;;5018392;28;20458;-64
2022/12/28 11:09:13;;;;;;;5.53;1.77;;;11.30;99.90;;;;;;5014661;28;20619;-64
2022/12/28 11:11:39;;;;;;;2.97;2.13;;;11.40;99.90;;;;;;5015508;28;20413;-64
2022/12/28 11:14:17;;;;;;;4.03;2.70;;;11.40;99.90;;;;;;5018759;28;20783;-64
2022/12/28 11:16:43;;;;;;;4.67;1.77;;;11.50;99.90;;;;;;5017623;28;20682;-64
2022/12/28 11:19:10;;;;;;;3.53;1.77;;;11.50;99.90;;;;;;5015395;28;21004;-64
2022/12/28 11:21:36;;;;;;;2.20;1.70;;;11.50;99.90;;;;;;5014999;28;20423;-64
2022/12/28 11:24:03;;;;;;;2.57;1.77;;;11.60;99.90;;;;;;5017625;28;20428;-65
2022/12/28 11:26:30;;;;;;;2.50;1.77;;;11.60;99.90;;;;;;5015284;28;20197;-65
2022/12/28 11:28:55;;;;;;;2.10;1.60;;;11.60;99.90;;;;;;5009885;28;20443;-65
2022/12/28 11:31:35;;;;;;;3.57;1.70;;;11.60;99.90;;;;;;5024073;28;20944;-65
2022/12/28 11:34:05;;;;;;;3.57;1.73;;;11.60;99.90;;;;;;5012629;28;20623;-65
2022/12/28 11:36:38;;;;;;;2.57;1.87;;;11.60;99.90;;;;;;5015392;28;20549;-65
2022/12/28 11:39:26;;;;;;;2.87;1.53;;;11.60;99.90;;;;;;5018076;28;20932;-65
2022/12/28 11:41:53;;;;;;;5.00;1.60;;;11.50;99.90;;;;;;5016197;28;20423;-65
2022/12/28 11:44:39;;;;;;;3.30;2.00;;;11.60;99.90;;;;;;5021023;28;20493;-65
2022/12/28 11:47:21;;;;;;;6.37;1.90;;;11.70;99.90;;;;;;5013376;28;20455;-65
2022/12/28 11:49:47;;;;;;;2.63;1.70;;;11.70;99.90;;;;;;5018095;28;20439;-65
2022/12/28 11:52:15;;;;;;;2.23;1.57;;;11.70;99.90;;;;;;5019414;28;20434;-65
2022/12/28 11:55:01;;;;;;;2.43;1.73;;;11.80;99.90;;;;;;5022695;28;21037;-65
2022/12/28 11:57:33;;;;;;;3.67;1.80;;;11.90;99.90;;;;;;5017609;28;20950;-65
2022/12/28 12:00:19;;;;;;;2.67;1.97;;;12.10;99.90;;;;;;5019073;28;21036;-64
2022/12/28 12:03:00;;;;;;;1.77;1.37;;;12.50;99.90;;;;;;5017532;28;20440;-65
2022/12/28 12:05:47;;;;;;;3.20;1.73;;;12.90;99.90;;;;;;5017532;28;20433;-65
2022/12/28 12:08:15;;;;;;;2.10;1.63;;;13.20;99.90;;;;;;5008368;28;20530;-65
2022/12/28 12:10:43;;;;;;;3.10;1.50;;;13.00;99.90;;;;;;5011697;28;20443;-65
2022/12/28 12:13:24;;;;;;;2.20;1.60;;;12.80;99.90;;;;;;5013489;28;20536;-65
2022/12/28 12:16:15;;;;;;;2.20;1.70;;;12.70;99.90;;;;;;5011519;28;20829;-64
2022/12/28 12:18:49;;;;;;;2.40;1.80;;;12.50;99.90;;;;;;5009893;28;20505;-65
2022/12/28 12:21:38;;;;;;;3.63;1.73;;;12.40;99.90;;;;;;5013771;28;20621;-65
2022/12/28 12:24:25;;;;;;;3.30;1.97;;;12.30;99.90;;;;;;5011404;28;20909;-65
2022/12/28 12:26:57;;;;;;;3.30;1.87;;;12.30;99.90;;;;;;5006289;28;20451;-65
2022/12/28 12:29:38;;;;;;;6.43;2.37;;;12.30;99.90;;;;;;5009699;28;20427;-65
2022/12/28 12:32:25;;;;;;;1.93;1.50;;;12.20;99.90;;;;;;5011402;28;20420;-65
2022/12/28 12:35:02;;;;;;;1.90;1.60;;;12.30;99.90;;;;;;5008257;28;20853;-65
2022/12/28 12:38:02;;;;;;;3.40;1.90;;;12.20;99.90;;;;;;5017485;28;20458;-64
2022/12/28 12:40:59;;;;;;;2.00;1.53;;;12.30;99.90;;;;;;5011723;28;20434;-65
2022/12/28 12:43:39;;;;;;;2.60;1.80;;;12.20;99.90;;;;;;5013077;28;20576;-65
2022/12/28 12:46:36;;;;;;;4.70;1.93;;;12.20;99.90;;;;;;5008962;28;20464;-65
2022/12/28 12:49:11;;;;;;;3.37;1.80;;;12.20;99.90;;;;;;5017417;28;20902;-65
2022/12/28 12:51:46;;;;;;;5.00;1.87;;;12.30;99.90;;;;;;5013438;28;20825;-65
2022/12/28 12:54:48;;;;;;;2.00;1.53;;;12.30;99.90;;;;;;5022442;28;20826;-65
2022/12/28 12:57:33;;;;;;;2.60;1.40;;;12.20;99.90;;;;;;5016097;28;20489;-65
2022/12/28 13:00:15;;;;;;;2.77;1.80;;;12.20;99.90;;;;;;5014345;28;20428;-65
2022/12/28 13:02:56;;;;;;;2.30;1.67;;;12.20;99.90;;;;;;5019101;28;20439;-65
2022/12/28 13:05:25;;;;;;;3.20;1.90;;;12.20;99.90;;;;;;5013860;28;20463;-65
2022/12/28 13:07:55;;;;;;;3.07;1.80;;;12.20;99.90;;;;;;5016660;28;20526;-65
2022/12/28 13:10:43;;;;;;;3.53;2.00;;;12.20;99.90;;;;;;5016789;28;20466;-65
2022/12/28 13:13:27;;;;;;;3.20;1.60;;;12.20;99.90;;;;;;5017579;28;20807;-65
2022/12/28 13:15:58;;;;;;;3.13;1.70;;;12.30;99.90;;;;;;5015387;28;20999;-65
2022/12/28 13:18:24;;;;;;;3.20;2.00;;;12.40;99.90;;;;;;5017601;28;20471;-65
2022/12/28 13:21:00;;;;;;;2.57;1.70;;;12.40;99.90;;;;;;5007620;28;20436;-65
2022/12/28 13:23:28;;;;;;;1.87;1.43;;;12.40;99.90;;;;;;5014994;28;20201;-64
2022/12/28 13:25:57;;;;;;;2.83;1.87;;;12.40;99.90;;;;;;5011393;28;20447;-64
2022/12/28 13:28:28;;;;;;;2.57;1.63;;;12.30;99.90;;;;;;5014776;28;20443;-64
2022/12/28 13:31:16;;;;;;;2.53;1.67;;;12.30;99.90;;;;;;5005411;28;20525;-66
2022/12/28 13:33:42;;;;;;;3.93;1.77;;;12.20;99.90;;;;;;5005139;28;20558;-65
2022/12/28 13:36:16;;;;;;;2.83;1.60;;;12.30;99.90;;;;;;5006467;28;20990;-66
2022/12/28 13:38:42;;;;;;;2.73;1.70;;;12.20;99.90;;;;;;5002605;28;20627;-66